sensor_id;sensor_type;location;lat;lon;timestamp;temperature;humidity
24730;DHT22;12832;52.392;13.066;2023-08-30T00:00:59;28.10;46.60
24730;DHT22;12832;52.392;13.066;2023-08-30T00:03:25;28.10;46.70
24730;DHT22;12832;52.392;13.066;2023-08-30T00:05:52;28.20;46.70
24730;DHT22;12832;52.392;13.066;2023-08-30T00:08:18;28.10;46.60
24730;DHT22;12832;52.392;13.066;2023-08-30T00:10:46;28.10;46.60
24730;DHT22;12832;52.392;13.066;2023-08-30T00:13:12;28.10;47.30
24730;DHT22;12832;52.392;13.066;2023-08-30T00:15:38;28.10;46.60
24730;DHT22;12832;52.392;13.066;2023-08-30T00:18:04;28.10;46.60
24730;DHT22;12832;52.392;13.066;2023-08-30T00:20:31;28.10;46.60
24730;DHT22;12832;52.392;13.066;2023-08-30T00:22:58;28.10;46.60
24730;DHT22;12832;52.392;13.066;2023-08-30T00:25:24;28.10;46.60
24730;DHT22;12832;52.392;13.066;2023-08-30T00:27:50;28.10;46.70
24730;DHT22;12832;52.392;13.066;2023-08-30T00:30:17;28.10;46.60
24730;DHT22;12832;52.392;13.066;2023-08-30T00:32:43;28.10;46.60
24730;DHT22;12832;52.392;13.066;2023-08-30T00:35:10;28.20;46.70
24730;DHT22;12832;52.392;13.066;2023-08-30T00:37:36;28.10;46.60
24730;DHT22;12832;52.392;13.066;2023-08-30T00:40:03;28.10;46.60
24730;DHT22;12832;52.392;13.066;2023-08-30T00:42:29;28.10;46.70
24730;DHT22;12832;52.392;13.066;2023-08-30T00:44:56;28.10;46.60
24730;DHT22;12832;52.392;13.066;2023-08-30T00:47:22;28.20;46.70
24730;DHT22;12832;52.392;13.066;2023-08-30T00:49:48;28.10;46.60
24730;DHT22;12832;52.392;13.066;2023-08-30T00:52:15;28.20;46.70
24730;DHT22;12832;52.392;13.066;2023-08-30T00:54:42;28.20;46.70
24730;DHT22;12832;52.392;13.066;2023-08-30T00:57:09;28.10;46.60
24730;DHT22;12832;52.392;13.066;2023-08-30T00:59:35;28.20;46.70
24730;DHT22;12832;52.392;13.066;2023-08-30T01:02:02;28.20;46.70
24730;DHT22;12832;52.392;13.066;2023-08-30T01:04:30;28.20;46.70
24730;DHT22;12832;52.392;13.066;2023-08-30T01:06:56;28.20;46.70
24730;DHT22;12832;52.392;13.066;2023-08-30T01:09:23;28.20;46.70
24730;DHT22;12832;52.392;13.066;2023-08-30T01:14:49;28.20;46.60
24730;DHT22;12832;52.392;13.066;2023-08-30T01:17:19;28.20;46.60
24730;DHT22;12832;52.392;13.066;2023-08-30T01:19:58;28.10;46.60
24730;DHT22;12832;52.392;13.066;2023-08-30T01:28:24;28.20;46.60
24730;DHT22;12832;52.392;13.066;2023-08-30T01:30:53;28.20;46.60
24730;DHT22;12832;52.392;13.066;2023-08-30T01:33:24;28.10;46.60
24730;DHT22;12832;52.392;13.066;2023-08-30T01:35:57;28.20;46.60
24730;DHT22;12832;52.392;13.066;2023-08-30T01:38:26;28.20;46.60
24730;DHT22;12832;52.392;13.066;2023-08-30T01:40:55;28.20;46.60
24730;DHT22;12832;52.392;13.066;2023-08-30T01:43:23;28.20;46.60
24730;DHT22;12832;52.392;13.066;2023-08-30T01:45:51;28.20;46.60
24730;DHT22;12832;52.392;13.066;2023-08-30T01:48:18;28.20;46.60
24730;DHT22;12832;52.392;13.066;2023-08-30T01:50:46;28.20;46.60
24730;DHT22;12832;52.392;13.066;2023-08-30T01:53:13;28.20;46.60
24730;DHT22;12832;52.392;13.066;2023-08-30T01:55:40;28.20;46.60
24730;DHT22;12832;52.392;13.066;2023-08-30T01:58:07;28.20;46.60
24730;DHT22;12832;52.392;13.066;2023-08-30T02:00:35;28.20;46.60
24730;DHT22;12832;52.392;13.066;2023-08-30T02:03:09;28.20;46.60
24730;DHT22;12832;52.392;13.066;2023-08-30T02:05:39;28.20;46.60
24730;DHT22;12832;52.392;13.066;2023-08-30T02:08:18;28.20;46.60
24730;DHT22;12832;52.392;13.066;2023-08-30T02:10:56;28.20;46.60
24730;DHT22;12832;52.392;13.066;2023-08-30T02:13:26;28.20;46.60
24730;DHT22;12832;52.392;13.066;2023-08-30T02:15:59;28.20;46.60
24730;DHT22;12832;52.392;13.066;2023-08-30T02:18:27;28.20;46.60
24730;DHT22;12832;52.392;13.066;2023-08-30T02:20:53;28.20;46.60
24730;DHT22;12832;52.392;13.066;2023-08-30T02:23:23;28.20;46.60
24730;DHT22;12832;52.392;13.066;2023-08-30T02:25:50;28.20;46.60
24730;DHT22;12832;52.392;13.066;2023-08-30T02:28:17;28.20;46.60
24730;DHT22;12832;52.392;13.066;2023-08-30T02:30:43;28.20;46.60
24730;DHT22;12832;52.392;13.066;2023-08-30T02:33:09;28.20;46.60
24730;DHT22;12832;52.392;13.066;2023-08-30T02:35:35;28.20;46.60
24730;DHT22;12832;52.392;13.066;2023-08-30T02:38:02;28.20;46.60
24730;DHT22;12832;52.392;13.066;2023-08-30T02:40:31;28.20;46.60
24730;DHT22;12832;52.392;13.066;2023-08-30T02:43:00;28.10;46.60
24730;DHT22;12832;52.392;13.066;2023-08-30T02:45:26;28.10;46.60
24730;DHT22;12832;52.392;13.066;2023-08-30T02:47:55;28.10;46.60
24730;DHT22;12832;52.392;13.066;2023-08-30T02:50:23;28.10;46.60
24730;DHT22;12832;52.392;13.066;2023-08-30T02:52:50;28.10;46.60
24730;DHT22;12832;52.392;13.066;2023-08-30T02:55:17;28.10;46.60
24730;DHT22;12832;52.392;13.066;2023-08-30T02:57:43;28.10;46.60
24730;DHT22;12832;52.392;13.066;2023-08-30T03:00:09;28.10;46.60
24730;DHT22;12832;52.392;13.066;2023-08-30T03:02:35;28.10;46.70
24730;DHT22;12832;52.392;13.066;2023-08-30T03:05:02;28.10;46.60
24730;DHT22;12832;52.392;13.066;2023-08-30T03:07:30;28.10;46.60
24730;DHT22;12832;52.392;13.066;2023-08-30T03:09:57;28.10;46.70
24730;DHT22;12832;52.392;13.066;2023-08-30T03:12:23;28.10;46.60
24730;DHT22;12832;52.392;13.066;2023-08-30T03:14:49;28.10;46.70
24730;DHT22;12832;52.392;13.066;2023-08-30T03:17:15;28.10;46.70
24730;DHT22;12832;52.392;13.066;2023-08-30T03:19:41;28.00;46.60
24730;DHT22;12832;52.392;13.066;2023-08-30T03:22:07;28.10;46.70
24730;DHT22;12832;52.392;13.066;2023-08-30T03:24:34;28.00;46.60
24730;DHT22;12832;52.392;13.066;2023-08-30T03:27:01;28.00;46.60
24730;DHT22;12832;52.392;13.066;2023-08-30T03:29:28;28.00;46.60
24730;DHT22;12832;52.392;13.066;2023-08-30T03:31:54;28.00;46.60
24730;DHT22;12832;52.392;13.066;2023-08-30T03:34:20;28.00;46.60
24730;DHT22;12832;52.392;13.066;2023-08-30T03:36:47;28.00;46.60
24730;DHT22;12832;52.392;13.066;2023-08-30T03:39:20;28.00;46.60
24730;DHT22;12832;52.392;13.066;2023-08-30T03:41:47;28.00;46.70
24730;DHT22;12832;52.392;13.066;2023-08-30T03:44:13;28.00;46.70
24730;DHT22;12832;52.392;13.066;2023-08-30T03:46:39;28.00;46.70
24730;DHT22;12832;52.392;13.066;2023-08-30T03:49:06;28.00;46.70
24730;DHT22;12832;52.392;13.066;2023-08-30T03:51:32;27.90;46.60
24730;DHT22;12832;52.392;13.066;2023-08-30T03:53:58;28.00;46.70
24730;DHT22;12832;52.392;13.066;2023-08-30T03:56:24;28.00;46.70
24730;DHT22;12832;52.392;13.066;2023-08-30T03:58:50;28.00;46.70
24730;DHT22;12832;52.392;13.066;2023-08-30T04:01:16;28.00;46.70
24730;DHT22;12832;52.392;13.066;2023-08-30T04:03:43;27.90;46.60
24730;DHT22;12832;52.392;13.066;2023-08-30T04:06:09;27.90;46.60
24730;DHT22;12832;52.392;13.066;2023-08-30T04:08:35;28.00;46.70
24730;DHT22;12832;52.392;13.066;2023-08-30T04:11:02;27.90;46.60
24730;DHT22;12832;52.392;13.066;2023-08-30T04:13:28;27.90;46.60
24730;DHT22;12832;52.392;13.066;2023-08-30T04:15:54;27.90;46.60
24730;DHT22;12832;52.392;13.066;2023-08-30T04:18:22;27.90;46.70
24730;DHT22;12832;52.392;13.066;2023-08-30T04:20:48;27.90;47.30
24730;DHT22;12832;52.392;13.066;2023-08-30T04:23:15;27.90;46.60
24730;DHT22;12832;52.392;13.066;2023-08-30T04:25:41;27.90;46.60
24730;DHT22;12832;52.392;13.066;2023-08-30T04:28:08;28.00;46.70
24730;DHT22;12832;52.392;13.066;2023-08-30T04:30:36;27.90;46.70
24730;DHT22;12832;52.392;13.066;2023-08-30T04:33:04;27.90;46.70
24730;DHT22;12832;52.392;13.066;2023-08-30T04:35:31;27.90;46.80
24730;DHT22;12832;52.392;13.066;2023-08-30T04:37:59;27.90;46.90
24730;DHT22;12832;52.392;13.066;2023-08-30T04:40:26;27.90;47.00
24730;DHT22;12832;52.392;13.066;2023-08-30T04:42:53;27.90;47.10
24730;DHT22;12832;52.392;13.066;2023-08-30T04:45:19;27.90;47.20
24730;DHT22;12832;52.392;13.066;2023-08-30T04:47:45;27.90;47.50
24730;DHT22;12832;52.392;13.066;2023-08-30T04:50:12;27.90;47.50
24730;DHT22;12832;52.392;13.066;2023-08-30T04:52:38;27.90;47.30
24730;DHT22;12832;52.392;13.066;2023-08-30T04:55:05;27.90;47.30
24730;DHT22;12832;52.392;13.066;2023-08-30T04:57:31;27.90;47.40
24730;DHT22;12832;52.392;13.066;2023-08-30T04:59:57;27.90;47.90
24730;DHT22;12832;52.392;13.066;2023-08-30T05:02:24;27.90;48.30
24730;DHT22;12832;52.392;13.066;2023-08-30T05:04:50;27.90;47.40
24730;DHT22;12832;52.392;13.066;2023-08-30T05:07:17;27.90;47.30
24730;DHT22;12832;52.392;13.066;2023-08-30T05:09:43;27.90;47.40
24730;DHT22;12832;52.392;13.066;2023-08-30T05:12:09;27.90;47.40
24730;DHT22;12832;52.392;13.066;2023-08-30T05:14:35;27.90;47.30
24730;DHT22;12832;52.392;13.066;2023-08-30T05:17:02;27.90;47.20
24730;DHT22;12832;52.392;13.066;2023-08-30T05:19:28;27.90;47.20
24730;DHT22;12832;52.392;13.066;2023-08-30T05:21:54;27.90;47.30
24730;DHT22;12832;52.392;13.066;2023-08-30T05:24:21;27.90;47.30
24730;DHT22;12832;52.392;13.066;2023-08-30T05:26:47;27.90;47.30
24730;DHT22;12832;52.392;13.066;2023-08-30T05:29:14;27.90;47.30
24730;DHT22;12832;52.392;13.066;2023-08-30T05:31:41;27.80;47.10
24730;DHT22;12832;52.392;13.066;2023-08-30T05:34:08;27.80;47.10
24730;DHT22;12832;52.392;13.066;2023-08-30T05:36:34;27.80;47.00
24730;DHT22;12832;52.392;13.066;2023-08-30T05:39:00;27.80;47.10
24730;DHT22;12832;52.392;13.066;2023-08-30T05:41:26;27.80;47.10
24730;DHT22;12832;52.392;13.066;2023-08-30T05:43:53;27.80;47.10
24730;DHT22;12832;52.392;13.066;2023-08-30T05:46:20;27.80;47.10
24730;DHT22;12832;52.392;13.066;2023-08-30T05:48:46;27.80;47.10
24730;DHT22;12832;52.392;13.066;2023-08-30T05:51:12;27.80;47.10
24730;DHT22;12832;52.392;13.066;2023-08-30T05:53:38;27.80;47.10
24730;DHT22;12832;52.392;13.066;2023-08-30T05:56:05;27.80;47.10
24730;DHT22;12832;52.392;13.066;2023-08-30T05:58:31;27.80;47.30
24730;DHT22;12832;52.392;13.066;2023-08-30T06:00:58;27.80;47.50
24730;DHT22;12832;52.392;13.066;2023-08-30T06:03:28;27.90;47.70
24730;DHT22;12832;52.392;13.066;2023-08-30T06:05:55;27.90;47.80
24730;DHT22;12832;52.392;13.066;2023-08-30T06:08:21;27.90;47.40
24730;DHT22;12832;52.392;13.066;2023-08-30T06:10:47;27.80;47.30
24730;DHT22;12832;52.392;13.066;2023-08-30T06:13:13;27.90;47.50
24730;DHT22;12832;52.392;13.066;2023-08-30T06:15:40;27.90;47.60
24730;DHT22;12832;52.392;13.066;2023-08-30T06:18:06;27.90;47.60
24730;DHT22;12832;52.392;13.066;2023-08-30T06:20:33;27.90;47.70
24730;DHT22;12832;52.392;13.066;2023-08-30T06:23:02;27.80;47.50
24730;DHT22;12832;52.392;13.066;2023-08-30T06:25:29;27.80;47.50
24730;DHT22;12832;52.392;13.066;2023-08-30T06:27:57;27.80;47.60
24730;DHT22;12832;52.392;13.066;2023-08-30T06:30:25;27.80;47.60
24730;DHT22;12832;52.392;13.066;2023-08-30T06:32:52;27.80;47.60
24730;DHT22;12832;52.392;13.066;2023-08-30T06:35:18;27.80;47.60
24730;DHT22;12832;52.392;13.066;2023-08-30T06:37:44;27.80;47.60
24730;DHT22;12832;52.392;13.066;2023-08-30T06:40:10;27.80;47.70
24730;DHT22;12832;52.392;13.066;2023-08-30T06:42:37;27.80;47.70
24730;DHT22;12832;52.392;13.066;2023-08-30T06:45:05;27.80;47.80
24730;DHT22;12832;52.392;13.066;2023-08-30T06:47:31;27.80;47.90
24730;DHT22;12832;52.392;13.066;2023-08-30T06:49:58;27.80;47.80
24730;DHT22;12832;52.392;13.066;2023-08-30T06:52:25;27.80;47.80
24730;DHT22;12832;52.392;13.066;2023-08-30T06:54:51;27.80;47.80
24730;DHT22;12832;52.392;13.066;2023-08-30T06:57:17;27.70;47.70
24730;DHT22;12832;52.392;13.066;2023-08-30T06:59:43;27.70;47.70
24730;DHT22;12832;52.392;13.066;2023-08-30T07:02:09;27.70;47.90
24730;DHT22;12832;52.392;13.066;2023-08-30T07:04:36;27.60;47.90
24730;DHT22;12832;52.392;13.066;2023-08-30T07:07:02;27.70;48.10
24730;DHT22;12832;52.392;13.066;2023-08-30T07:09:28;27.70;48.10
24730;DHT22;12832;52.392;13.066;2023-08-30T07:11:55;27.70;48.30
24730;DHT22;12832;52.392;13.066;2023-08-30T07:14:22;27.70;48.00
24730;DHT22;12832;52.392;13.066;2023-08-30T07:16:48;27.70;48.00
24730;DHT22;12832;52.392;13.066;2023-08-30T07:19:16;27.70;48.00
24730;DHT22;12832;52.392;13.066;2023-08-30T07:21:42;27.70;48.10
24730;DHT22;12832;52.392;13.066;2023-08-30T07:24:09;27.70;48.00
24730;DHT22;12832;52.392;13.066;2023-08-30T07:26:35;27.70;48.10
24730;DHT22;12832;52.392;13.066;2023-08-30T07:29:03;27.80;48.10
24730;DHT22;12832;52.392;13.066;2023-08-30T07:31:33;27.80;48.40
24730;DHT22;12832;52.392;13.066;2023-08-30T07:33:59;27.80;48.40
24730;DHT22;12832;52.392;13.066;2023-08-30T07:36:27;27.80;48.70
24730;DHT22;12832;52.392;13.066;2023-08-30T07:39:12;27.80;48.40
24730;DHT22;12832;52.392;13.066;2023-08-30T07:41:39;27.80;48.40
24730;DHT22;12832;52.392;13.066;2023-08-30T07:44:06;27.80;48.20
24730;DHT22;12832;52.392;13.066;2023-08-30T07:46:32;27.80;48.20
24730;DHT22;12832;52.392;13.066;2023-08-30T07:48:58;27.80;48.10
24730;DHT22;12832;52.392;13.066;2023-08-30T07:51:25;27.70;48.00
24730;DHT22;12832;52.392;13.066;2023-08-30T07:53:51;27.70;48.00
24730;DHT22;12832;52.392;13.066;2023-08-30T07:56:17;27.70;48.00
24730;DHT22;12832;52.392;13.066;2023-08-30T07:58:43;27.70;48.00
24730;DHT22;12832;52.392;13.066;2023-08-30T08:01:10;27.70;48.00
24730;DHT22;12832;52.392;13.066;2023-08-30T08:03:36;27.70;48.00
24730;DHT22;12832;52.392;13.066;2023-08-30T08:06:06;27.70;48.00
24730;DHT22;12832;52.392;13.066;2023-08-30T08:08:32;27.60;47.90
24730;DHT22;12832;52.392;13.066;2023-08-30T08:10:59;27.70;48.00
24730;DHT22;12832;52.392;13.066;2023-08-30T08:13:25;27.60;47.90
24730;DHT22;12832;52.392;13.066;2023-08-30T08:15:52;27.60;47.90
24730;DHT22;12832;52.392;13.066;2023-08-30T08:18:21;27.60;48.00
24730;DHT22;12832;52.392;13.066;2023-08-30T08:20:47;27.60;48.00
24730;DHT22;12832;52.392;13.066;2023-08-30T08:23:13;27.60;48.00
24730;DHT22;12832;52.392;13.066;2023-08-30T08:25:40;27.60;48.10
24730;DHT22;12832;52.392;13.066;2023-08-30T08:28:06;27.60;48.10
24730;DHT22;12832;52.392;13.066;2023-08-30T08:30:32;27.60;48.10
24730;DHT22;12832;52.392;13.066;2023-08-30T08:32:59;27.60;48.20
24730;DHT22;12832;52.392;13.066;2023-08-30T08:35:25;27.50;48.10
24730;DHT22;12832;52.392;13.066;2023-08-30T08:37:52;27.60;48.20
24730;DHT22;12832;52.392;13.066;2023-08-30T08:40:18;27.50;48.10
24730;DHT22;12832;52.392;13.066;2023-08-30T08:42:58;27.50;48.20
24730;DHT22;12832;52.392;13.066;2023-08-30T08:45:25;27.50;48.20
24730;DHT22;12832;52.392;13.066;2023-08-30T08:47:52;27.50;48.20
24730;DHT22;12832;52.392;13.066;2023-08-30T08:50:18;27.50;48.20
24730;DHT22;12832;52.392;13.066;2023-08-30T08:52:44;27.50;48.20
24730;DHT22;12832;52.392;13.066;2023-08-30T08:55:27;27.50;48.20
24730;DHT22;12832;52.392;13.066;2023-08-30T08:57:57;27.50;48.20
24730;DHT22;12832;52.392;13.066;2023-08-30T09:00:24;27.50;48.20
24730;DHT22;12832;52.392;13.066;2023-08-30T09:02:52;27.50;48.20
24730;DHT22;12832;52.392;13.066;2023-08-30T09:05:19;27.50;48.20
24730;DHT22;12832;52.392;13.066;2023-08-30T09:07:47;27.50;48.20
24730;DHT22;12832;52.392;13.066;2023-08-30T09:10:13;27.50;48.30
24730;DHT22;12832;52.392;13.066;2023-08-30T09:12:39;27.40;48.20
24730;DHT22;12832;52.392;13.066;2023-08-30T09:15:06;27.50;48.30
24730;DHT22;12832;52.392;13.066;2023-08-30T09:17:36;27.50;48.30
24730;DHT22;12832;52.392;13.066;2023-08-30T09:20:10;27.50;48.40
24730;DHT22;12832;52.392;13.066;2023-08-30T09:22:41;27.50;48.30
24730;DHT22;12832;52.392;13.066;2023-08-30T09:25:21;27.50;48.30
24730;DHT22;12832;52.392;13.066;2023-08-30T09:27:48;27.50;48.40
24730;DHT22;12832;52.392;13.066;2023-08-30T09:30:21;27.40;48.30
24730;DHT22;12832;52.392;13.066;2023-08-30T09:32:47;27.50;48.40
24730;DHT22;12832;52.392;13.066;2023-08-30T09:35:14;27.50;48.40
24730;DHT22;12832;52.392;13.066;2023-08-30T09:37:40;27.50;48.40
24730;DHT22;12832;52.392;13.066;2023-08-30T09:40:07;27.40;48.50
24730;DHT22;12832;52.392;13.066;2023-08-30T09:42:33;27.50;48.50
24730;DHT22;12832;52.392;13.066;2023-08-30T09:44:59;27.50;48.50
24730;DHT22;12832;52.392;13.066;2023-08-30T09:47:26;27.50;48.50
24730;DHT22;12832;52.392;13.066;2023-08-30T09:49:55;27.50;48.50
24730;DHT22;12832;52.392;13.066;2023-08-30T09:52:24;27.50;48.50
24730;DHT22;12832;52.392;13.066;2023-08-30T09:54:54;27.60;48.50
24730;DHT22;12832;52.392;13.066;2023-08-30T09:57:21;27.60;48.30
24730;DHT22;12832;52.392;13.066;2023-08-30T09:59:48;27.60;48.30
24730;DHT22;12832;52.392;13.066;2023-08-30T10:02:17;27.60;48.50
24730;DHT22;12832;52.392;13.066;2023-08-30T10:04:45;27.60;48.40
24730;DHT22;12832;52.392;13.066;2023-08-30T10:07:12;27.60;48.40
24730;DHT22;12832;52.392;13.066;2023-08-30T10:09:41;27.60;48.40
24730;DHT22;12832;52.392;13.066;2023-08-30T10:12:27;27.60;48.40
24730;DHT22;12832;52.392;13.066;2023-08-30T10:14:54;27.60;48.40
24730;DHT22;12832;52.392;13.066;2023-08-30T10:17:31;27.50;48.40
24730;DHT22;12832;52.392;13.066;2023-08-30T10:20:05;27.50;48.40
24730;DHT22;12832;52.392;13.066;2023-08-30T10:22:37;27.50;48.40
24730;DHT22;12832;52.392;13.066;2023-08-30T10:25:06;27.50;48.40
24730;DHT22;12832;52.392;13.066;2023-08-30T10:27:46;27.50;48.30
24730;DHT22;12832;52.392;13.066;2023-08-30T10:30:13;27.50;48.30
24730;DHT22;12832;52.392;13.066;2023-08-30T10:32:44;27.50;48.20
24730;DHT22;12832;52.392;13.066;2023-08-30T10:35:15;27.50;48.40
24730;DHT22;12832;52.392;13.066;2023-08-30T10:37:42;27.50;48.40
24730;DHT22;12832;52.392;13.066;2023-08-30T10:40:09;27.50;48.40
24730;DHT22;12832;52.392;13.066;2023-08-30T10:42:36;27.50;48.40
24730;DHT22;12832;52.392;13.066;2023-08-30T10:45:05;27.50;48.40
24730;DHT22;12832;52.392;13.066;2023-08-30T10:47:36;27.50;48.50
24730;DHT22;12832;52.392;13.066;2023-08-30T10:50:08;27.50;48.50
24730;DHT22;12832;52.392;13.066;2023-08-30T10:52:35;27.50;48.50
24730;DHT22;12832;52.392;13.066;2023-08-30T10:55:09;27.40;48.50
24730;DHT22;12832;52.392;13.066;2023-08-30T10:57:36;27.50;48.60
24730;DHT22;12832;52.392;13.066;2023-08-30T11:00:09;27.40;48.50
24730;DHT22;12832;52.392;13.066;2023-08-30T11:02:37;27.40;48.50
24730;DHT22;12832;52.392;13.066;2023-08-30T11:05:06;27.40;48.50
24730;DHT22;12832;52.392;13.066;2023-08-30T11:07:33;27.40;49.10
24730;DHT22;12832;52.392;13.066;2023-08-30T11:09:59;27.40;48.50
24730;DHT22;12832;52.392;13.066;2023-08-30T11:12:25;27.40;48.50
24730;DHT22;12832;52.392;13.066;2023-08-30T11:14:52;27.40;48.40
24730;DHT22;12832;52.392;13.066;2023-08-30T11:17:19;27.40;48.40
24730;DHT22;12832;52.392;13.066;2023-08-30T11:19:45;27.50;48.40
24730;DHT22;12832;52.392;13.066;2023-08-30T11:22:15;27.40;48.30
24730;DHT22;12832;52.392;13.066;2023-08-30T11:24:42;27.40;48.20
24730;DHT22;12832;52.392;13.066;2023-08-30T11:27:09;27.40;48.10
24730;DHT22;12832;52.392;13.066;2023-08-30T11:29:36;27.40;48.20
24730;DHT22;12832;52.392;13.066;2023-08-30T11:32:07;27.40;48.30
24730;DHT22;12832;52.392;13.066;2023-08-30T11:34:33;27.40;48.20
24730;DHT22;12832;52.392;13.066;2023-08-30T11:37:00;27.50;48.20
24730;DHT22;12832;52.392;13.066;2023-08-30T11:39:29;27.40;48.20
24730;DHT22;12832;52.392;13.066;2023-08-30T11:41:56;27.40;48.10
24730;DHT22;12832;52.392;13.066;2023-08-30T11:44:29;27.40;48.10
24730;DHT22;12832;52.392;13.066;2023-08-30T11:47:01;27.40;48.20
24730;DHT22;12832;52.392;13.066;2023-08-30T11:49:30;27.40;48.10
24730;DHT22;12832;52.392;13.066;2023-08-30T11:51:56;27.40;48.10
24730;DHT22;12832;52.392;13.066;2023-08-30T11:54:24;27.40;48.10
24730;DHT22;12832;52.392;13.066;2023-08-30T11:56:50;27.40;48.10
24730;DHT22;12832;52.392;13.066;2023-08-30T11:59:20;27.40;48.10
24730;DHT22;12832;52.392;13.066;2023-08-30T12:01:52;27.40;48.20
24730;DHT22;12832;52.392;13.066;2023-08-30T12:04:19;27.40;48.10
24730;DHT22;12832;52.392;13.066;2023-08-30T12:06:52;27.40;48.10
24730;DHT22;12832;52.392;13.066;2023-08-30T12:09:19;27.40;48.10
24730;DHT22;12832;52.392;13.066;2023-08-30T12:11:51;27.40;48.10
24730;DHT22;12832;52.392;13.066;2023-08-30T12:14:17;27.40;48.10
24730;DHT22;12832;52.392;13.066;2023-08-30T12:16:43;27.40;48.10
24730;DHT22;12832;52.392;13.066;2023-08-30T12:19:14;27.40;48.10
24730;DHT22;12832;52.392;13.066;2023-08-30T12:21:41;27.40;48.10
24730;DHT22;12832;52.392;13.066;2023-08-30T12:24:09;27.40;48.10
24730;DHT22;12832;52.392;13.066;2023-08-30T12:26:35;27.40;48.10
24730;DHT22;12832;52.392;13.066;2023-08-30T12:29:05;27.40;48.10
24730;DHT22;12832;52.392;13.066;2023-08-30T12:31:32;27.40;48.10
24730;DHT22;12832;52.392;13.066;2023-08-30T12:33:59;27.40;48.10
24730;DHT22;12832;52.392;13.066;2023-08-30T12:36:25;27.40;48.10
24730;DHT22;12832;52.392;13.066;2023-08-30T12:38:51;27.40;48.10
24730;DHT22;12832;52.392;13.066;2023-08-30T12:41:18;27.40;48.10
24730;DHT22;12832;52.392;13.066;2023-08-30T12:43:44;27.40;48.10
24730;DHT22;12832;52.392;13.066;2023-08-30T12:46:11;27.40;48.10
24730;DHT22;12832;52.392;13.066;2023-08-30T12:48:37;27.40;48.10
24730;DHT22;12832;52.392;13.066;2023-08-30T12:51:03;27.40;48.10
24730;DHT22;12832;52.392;13.066;2023-08-30T12:53:29;27.40;48.10
24730;DHT22;12832;52.392;13.066;2023-08-30T12:55:56;27.40;48.10
24730;DHT22;12832;52.392;13.066;2023-08-30T12:58:22;27.40;48.10
24730;DHT22;12832;52.392;13.066;2023-08-30T13:00:48;27.40;48.10
24730;DHT22;12832;52.392;13.066;2023-08-30T13:03:15;27.40;48.10
24730;DHT22;12832;52.392;13.066;2023-08-30T13:05:42;27.40;48.10
24730;DHT22;12832;52.392;13.066;2023-08-30T13:08:08;27.40;48.10
24730;DHT22;12832;52.392;13.066;2023-08-30T13:10:34;27.40;48.10
24730;DHT22;12832;52.392;13.066;2023-08-30T13:13:00;27.40;48.10
24730;DHT22;12832;52.392;13.066;2023-08-30T13:15:27;27.40;48.10
24730;DHT22;12832;52.392;13.066;2023-08-30T13:17:53;27.40;48.10
24730;DHT22;12832;52.392;13.066;2023-08-30T13:20:19;27.40;48.10
24730;DHT22;12832;52.392;13.066;2023-08-30T13:22:45;27.40;48.00
24730;DHT22;12832;52.392;13.066;2023-08-30T13:25:12;27.40;48.10
24730;DHT22;12832;52.392;13.066;2023-08-30T13:27:38;27.40;48.00
24730;DHT22;12832;52.392;13.066;2023-08-30T13:30:05;27.40;47.90
24730;DHT22;12832;52.392;13.066;2023-08-30T13:32:31;27.40;47.80
24730;DHT22;12832;52.392;13.066;2023-08-30T13:34:57;27.40;47.90
24730;DHT22;12832;52.392;13.066;2023-08-30T13:37:23;27.40;47.70
24730;DHT22;12832;52.392;13.066;2023-08-30T13:39:52;27.40;47.70
24730;DHT22;12832;52.392;13.066;2023-08-30T13:42:18;27.40;47.70
24730;DHT22;12832;52.392;13.066;2023-08-30T13:44:44;27.40;47.70
24730;DHT22;12832;52.392;13.066;2023-08-30T13:47:11;27.40;47.70
24730;DHT22;12832;52.392;13.066;2023-08-30T13:49:37;27.40;47.60
24730;DHT22;12832;52.392;13.066;2023-08-30T13:52:04;27.40;47.60
24730;DHT22;12832;52.392;13.066;2023-08-30T13:54:30;27.40;47.60
24730;DHT22;12832;52.392;13.066;2023-08-30T13:56:57;27.40;47.70
24730;DHT22;12832;52.392;13.066;2023-08-30T13:59:24;27.40;47.50
24730;DHT22;12832;52.392;13.066;2023-08-30T14:01:50;27.40;47.50
24730;DHT22;12832;52.392;13.066;2023-08-30T14:04:16;27.40;47.40
24730;DHT22;12832;52.392;13.066;2023-08-30T14:06:42;27.40;47.40
24730;DHT22;12832;52.392;13.066;2023-08-30T14:09:09;27.40;47.40
24730;DHT22;12832;52.392;13.066;2023-08-30T14:11:35;27.40;47.40
24730;DHT22;12832;52.392;13.066;2023-08-30T14:14:04;27.40;47.30
24730;DHT22;12832;52.392;13.066;2023-08-30T14:16:30;27.40;47.40
24730;DHT22;12832;52.392;13.066;2023-08-30T14:18:56;27.40;47.20
24730;DHT22;12832;52.392;13.066;2023-08-30T14:21:26;27.40;47.30
24730;DHT22;12832;52.392;13.066;2023-08-30T14:23:53;27.40;47.30
24730;DHT22;12832;52.392;13.066;2023-08-30T14:26:20;27.30;47.30
24730;DHT22;12832;52.392;13.066;2023-08-30T14:28:46;27.40;47.30
24730;DHT22;12832;52.392;13.066;2023-08-30T14:31:12;27.30;47.10
24730;DHT22;12832;52.392;13.066;2023-08-30T14:33:43;27.40;47.20
24730;DHT22;12832;52.392;13.066;2023-08-30T14:36:11;27.40;47.20
24730;DHT22;12832;52.392;13.066;2023-08-30T14:38:37;27.40;47.30
24730;DHT22;12832;52.392;13.066;2023-08-30T14:41:04;27.40;47.30
24730;DHT22;12832;52.392;13.066;2023-08-30T14:43:32;27.40;47.30
24730;DHT22;12832;52.392;13.066;2023-08-30T14:46:02;27.40;47.30
24730;DHT22;12832;52.392;13.066;2023-08-30T14:48:36;27.40;47.70
24730;DHT22;12832;52.392;13.066;2023-08-30T14:51:05;27.40;47.40
24730;DHT22;12832;52.392;13.066;2023-08-30T14:53:31;27.40;47.40
24730;DHT22;12832;52.392;13.066;2023-08-30T14:55:57;27.40;47.40
24730;DHT22;12832;52.392;13.066;2023-08-30T14:58:24;27.40;47.40
24730;DHT22;12832;52.392;13.066;2023-08-30T15:00:50;27.40;47.50
24730;DHT22;12832;52.392;13.066;2023-08-30T15:03:17;27.40;47.50
24730;DHT22;12832;52.392;13.066;2023-08-30T15:05:43;27.40;47.50
24730;DHT22;12832;52.392;13.066;2023-08-30T15:08:10;27.40;47.50
24730;DHT22;12832;52.392;13.066;2023-08-30T15:10:36;27.40;47.40
24730;DHT22;12832;52.392;13.066;2023-08-30T15:13:03;27.40;47.30
24730;DHT22;12832;52.392;13.066;2023-08-30T15:15:29;27.40;47.30
24730;DHT22;12832;52.392;13.066;2023-08-30T15:17:56;27.40;47.30
24730;DHT22;12832;52.392;13.066;2023-08-30T15:20:22;27.40;48.00
24730;DHT22;12832;52.392;13.066;2023-08-30T15:22:51;27.40;47.30
24730;DHT22;12832;52.392;13.066;2023-08-30T15:25:17;27.40;47.20